Fairview Valley, Nevada Weather observations

Data are for observation ending at time listed.
 Day   Time    Ave.   Ave.  Ave.  Vector   Max.   Stn.    Total    Solar   Ave.   Ave.    #1       #2
  of    of     Air    Rel.  Wind   Wind    Wind   Baro.  Precip.   Rad.    Soil   Vis.   Cloud   Cloud
Year   Day     Temp.  Hum.  Speed  Dir.    Gust   Pres.                    Temp.          Ceil    Ceil
2016   (PST)    F      %     mph   deg.    mph     mb.     in.     W/m2     F     (km)   k ft.   k ft.
------------------------------------------------------------------------------------------------------
 120    0:00  999.0   999  999.0   999    999.0    999    999.00     999   999.0   999.0  999.0  999.0
 120    0:10  999.0   999  999.0   999    999.0    999    999.00     999   999.0   999.0  999.0  999.0
 120    0:20  999.0   999  999.0   999    999.0    999    999.00     999   999.0   999.0  999.0  999.0
 120    0:30  999.0   999  999.0   999    999.0    999    999.00     999   999.0   999.0  999.0  999.0
 120    0:40  999.0   999  999.0   999    999.0    999    999.00     999   999.0   999.0  999.0  999.0
 120    0:50  999.0   999  999.0   999    999.0    999    999.00     999   999.0   999.0  999.0  999.0
 120    1:00  999.0   999  999.0   999    999.0    999    999.00     999   999.0   999.0  999.0  999.0
 120    1:10  999.0   999  999.0   999    999.0    999    999.00     999   999.0   999.0  999.0  999.0
 120    1:20  999.0   999  999.0   999    999.0    999    999.00     999   999.0   999.0  999.0  999.0
 120    1:30  999.0   999  999.0   999    999.0    999    999.00     999   999.0   999.0  999.0  999.0
 120    1:40  999.0   999  999.0   999    999.0    999    999.00     999   999.0   999.0  999.0  999.0
 120    1:50  999.0   999  999.0   999    999.0    999    999.00     999   999.0   999.0  999.0  999.0
 120    2:00  999.0   999  999.0   999    999.0    999    999.00     999   999.0   999.0  999.0  999.0
 120    2:10  999.0   999  999.0   999    999.0    999    999.00     999   999.0   999.0  999.0  999.0
 120    2:20  999.0   999  999.0   999    999.0    999    999.00     999   999.0   999.0  999.0  999.0
 120    2:30  999.0   999  999.0   999    999.0    999    999.00     999   999.0   999.0  999.0  999.0
 120    2:40  999.0   999  999.0   999    999.0    999    999.00     999   999.0   999.0  999.0  999.0
 120    2:50  999.0   999  999.0   999    999.0    999    999.00     999   999.0   999.0  999.0  999.0
 120    3:00  999.0   999  999.0   999    999.0    999    999.00     999   999.0   999.0  999.0  999.0
 120    3:10  999.0   999  999.0   999    999.0    999    999.00     999   999.0   999.0  999.0  999.0
 120    3:20  999.0   999  999.0   999    999.0    999    999.00     999   999.0   999.0  999.0  999.0
 120    3:30  999.0   999  999.0   999    999.0    999    999.00     999   999.0   999.0  999.0  999.0
 120    3:40  999.0   999  999.0   999    999.0    999    999.00     999   999.0   999.0  999.0  999.0
 120    3:50  999.0   999  999.0   999    999.0    999    999.00     999   999.0   999.0  999.0  999.0
 120    4:00  999.0   999  999.0   999    999.0    999    999.00     999   999.0   999.0  999.0  999.0
 120    4:10  999.0   999  999.0   999    999.0    999    999.00     999   999.0   999.0  999.0  999.0
 120    4:20  999.0   999  999.0   999    999.0    999    999.00     999   999.0   999.0  999.0  999.0
 120    4:30  999.0   999  999.0   999    999.0    999    999.00     999   999.0   999.0  999.0  999.0
 120    4:40  999.0   999  999.0   999    999.0    999    999.00     999   999.0   999.0  999.0  999.0
 120    4:50  999.0   999  999.0   999    999.0    999    999.00     999   999.0   999.0  999.0  999.0
 120    5:00  999.0   999  999.0   999    999.0    999    999.00     999   999.0   999.0  999.0  999.0
 120    5:10  999.0   999  999.0   999    999.0    999    999.00     999   999.0   999.0  999.0  999.0
 120    5:20  999.0   999  999.0   999    999.0    999    999.00     999   999.0   999.0  999.0  999.0
 120    5:30  999.0   999  999.0   999    999.0    999    999.00     999   999.0   999.0  999.0  999.0
 120    5:40  999.0   999  999.0   999    999.0    999    999.00     999   999.0   999.0  999.0  999.0
 120    5:50  999.0   999  999.0   999    999.0    999    999.00     999   999.0   999.0  999.0  999.0
 120    6:00  999.0   999  999.0   999    999.0    999    999.00     999   999.0   999.0  999.0  999.0
 120    6:10  999.0   999  999.0   999    999.0    999    999.00     999   999.0   999.0  999.0  999.0
 120    6:20  999.0   999  999.0   999    999.0    999    999.00     999   999.0   999.0  999.0  999.0
 120    6:30  999.0   999  999.0   999    999.0    999    999.00     999   999.0   999.0  999.0  999.0
 120    6:40  999.0   999  999.0   999    999.0    999    999.00     999   999.0   999.0  999.0  999.0
 120    6:50   44.3    66    1.4   219      3.9    870     0.00     254    52.8   999.0    0.0  999.0
 120    7:00   47.6    59    3.7   190      5.7    870     0.00     324    52.7   999.0    0.0  999.0
 120    7:10   50.4    52    4.4   190      6.1    870     0.00     368    52.6   999.0    0.0  999.0
 120    7:20   51.9    49    3.4   201      5.6    870     0.00     369    52.6   999.0    0.0  999.0
 120    7:30   52.9    46    4.4   212      7.2    870     0.00     452    52.6   999.0    0.0  999.0
 120    7:40  999.0   999  999.0   999    999.0    999    999.00     999   999.0   999.0  999.0  999.0
 120    7:50   54.5    43    6.5   243     13.2    870     0.00     466    52.5   999.0    0.0  999.0
 120    8:00   54.8    41    8.7   248     12.6    870     0.00     511    52.5   999.0    0.0  999.0
 120    8:10   55.4    40    8.2   252     13.7    870     0.00     537    52.6   999.0    0.0  999.0
 120    8:20   55.5    40    9.6   249     15.0    870     0.00     511    52.5   999.0    0.0  999.0
 120    8:30   56.0    38    9.0   252     14.8    870     0.00     566    52.6   999.0    0.0  999.0
 120    8:40   56.6    38    7.5   253     11.8    870     0.00     607    52.5   999.0    0.0  999.0
 120    8:50   57.0    37    7.0   250     11.4    870     0.00     642    52.5   999.0    0.0  999.0
 120    9:00   57.7    34    8.8   285     14.8    869     0.00     661    52.6   999.0    0.0  999.0
 120    9:10   57.9    33    9.5   294     14.8    869     0.00     707    52.6   999.0    0.0  999.0
 120    9:20   58.1    34    5.7   285     12.4    869     0.00     699    52.6   999.0    0.0  999.0
 120    9:30   58.6    33    6.6   267     14.4    869     0.00     693    52.7   999.0    0.0  999.0
 120    9:40   58.9    31    9.1   259     15.1    869     0.00     781    52.7   999.0    0.0  999.0
 120    9:50   59.6    31    7.9   250     16.1    869     0.00     694    52.8   999.0    3.5  999.0
 120   10:00   58.4    31    8.2   290     15.1    869     0.00     530    52.9   999.0    3.0  999.0
 120   10:10   59.2    30    7.0   253     15.1    869     0.00     596    52.9   999.0    4.1  999.0
 120   10:20   61.2    28    8.3   245     15.6    869     0.00     913    53.0   999.0    0.7  999.0
 120   10:30   61.2    27    9.1   280     17.0    869     0.00     919    53.1   999.0    0.0  999.0
 120   10:40   60.4    27    8.9   253     16.9    869     0.00     812    53.1   999.0    0.0  999.0
 120   10:50   61.1    27    6.5   307     14.4    869     0.00     901    53.2   999.0    0.3  999.0
 120   11:00   61.6    27    8.0   263     16.9    868     0.00     840    53.3   999.0    2.9  999.0
 120   11:10   62.0    27    6.4   287     17.1    868     0.00     970    53.5   999.0    0.0  999.0
 120   11:20   62.2    26    8.4   261     14.5    868     0.00     992    53.6   999.0    0.0  999.0
 120   11:30   62.9    24    7.7   278     17.0    868     0.00    1044    53.8   999.0    0.7  999.0
 120   11:40   62.7    24    9.5   308     16.7    868     0.00     469    54.0   999.0    1.2  999.0
 120   11:50   62.2    24    7.2   250     17.2    868     0.00     567    54.2   999.0    5.1  999.0
 120   12:00   61.6    25   10.9   252     19.4    868     0.00     338    54.4   999.0    5.5  999.0
 120   12:10   62.1    24   10.7   250     17.1    868     0.00     625    54.6   999.0    2.9  999.0
 120   12:20   63.2    22   12.0   266     16.7    867     0.00     637    54.9   999.0    0.4  999.0
 120   12:30   63.6    21   11.8   285     20.8    867     0.00     778    55.1   999.0    0.0  999.0
 120   12:40   63.8    20   11.2   262     21.0    867     0.00     865    55.4   999.0    0.8  999.0
 120   12:50   63.9    19   10.4   295     19.4    867     0.00     821    55.7   999.0    0.0  999.0
 120   13:00   64.3    20    7.7   264     18.0    867     0.00     704    56.0   999.0    0.0  999.0
 120   13:10   64.5    20   12.1   287     18.9    867     0.00     569    56.3   999.0    0.0  999.0
 120   13:20   63.3    22    8.7   311     14.0    867     0.00     294    56.5   999.0    0.5  999.0
 120   13:30   63.3    22   10.7   301     18.7    866     0.00     359    56.8   999.0    0.4  999.0
 120   13:40   63.6    21   14.5   307     18.9    866     0.00     422    57.0   999.0    4.2  999.0
 120   13:50   63.2    21   12.2   278     18.7    866     0.00     292    57.3   999.0    4.8  999.0
 120   14:00   63.3    21   11.8   276     25.1    866     0.00     450    57.5   999.0    2.7  999.0
 120   14:10   63.7    20   12.1   296     22.9    866     0.00     487    57.8   999.0    1.9  999.0
 120   14:20   64.1    20   14.7   299     24.3    866     0.00     500    58.0   999.0    4.5  999.0
 120   14:30   63.7    21   17.5   333     28.5    866     0.00     695    58.2   999.0    1.7  999.0
 120   14:40   64.6    20   16.9   326     22.1    865     0.00     707    58.4   999.0    0.5  999.0
 120   14:50   64.8    18   20.7   320     28.6    865     0.00     516    58.6   999.0    0.5  999.0
 120   15:00   64.4    17   17.9   334     26.9    865     0.00     579    58.8   999.0    0.0  999.0
 120   15:10   65.1    16   15.1   329     23.5    865     0.00     460    59.0   999.0    0.0  999.0
 120   15:20   64.0    17   13.9   318     21.9    865     0.00     235    59.1   999.0    0.5  999.0

Return to Fairview Valley graphs page.


Western Regional Climate Center,wrcc@dri.edu